createdAt,value
2024-05-09T00:00:22.514Z,86.1636
2024-05-09T00:01:18.931Z,86.2304
2024-05-09T00:02:19.790Z,86.2301
2024-05-09T00:03:22.305Z,86.1023
2024-05-09T00:04:22.234Z,86.3763
2024-05-09T00:05:24.431Z,86.2340
2024-05-09T00:06:24.375Z,86.1094
2024-05-09T00:07:26.423Z,86.1320
2024-05-09T00:08:28.827Z,86.1758
2024-05-09T00:09:31.022Z,86.2280
2024-05-09T00:10:36.970Z,86.3096
2024-05-09T00:11:34.145Z,86.3405
2024-05-09T00:12:36.326Z,86.4301
2024-05-09T00:13:38.506Z,86.5405
2024-05-09T00:14:40.748Z,86.6623
2024-05-09T00:15:42.905Z,86.7170
2024-05-09T00:16:45.086Z,86.6472
2024-05-09T00:17:47.417Z,86.7713
2024-05-09T00:18:47.467Z,86.8642
2024-05-09T00:19:48.991Z,86.8357
2024-05-09T00:20:49.789Z,86.7687
2024-05-09T00:21:49.574Z,86.7408
2024-05-09T00:22:51.776Z,86.9815
2024-05-09T00:23:52.351Z,87.0951
2024-05-09T00:24:53.238Z,86.9801
2024-05-09T00:25:55.427Z,87.0455
2024-05-09T00:26:57.629Z,87.1784
2024-05-09T00:27:59.820Z,87.1544
2024-05-09T00:29:02.219Z,87.2731
2024-05-09T00:30:04.207Z,87.1741
2024-05-09T00:31:04.175Z,87.2860
2024-05-09T00:32:06.414Z,87.3002
2024-05-09T00:33:07.859Z,87.2251
2024-05-09T00:34:07.094Z,87.2469
2024-05-09T00:35:07.055Z,87.1816
2024-05-09T00:36:09.346Z,87.3481
2024-05-09T00:37:11.553Z,87.4344
2024-05-09T00:38:13.780Z,87.4455
2024-05-09T00:39:15.987Z,87.4488
2024-05-09T00:40:26.568Z,87.3474
2024-05-09T00:41:19.928Z,87.4732
2024-05-09T00:42:19.844Z,87.6203
2024-05-09T00:43:22.070Z,87.5340
2024-05-09T00:44:24.518Z,87.5849
2024-05-09T00:45:24.503Z,87.6003
2024-05-09T00:46:24.487Z,87.5472
2024-05-09T00:47:26.886Z,87.6823
2024-05-09T00:48:27.188Z,87.6041
2024-05-09T00:49:28.520Z,87.5353
2024-05-09T00:50:35.230Z,87.5784
2024-05-09T00:51:29.411Z,87.6493
2024-05-09T00:52:31.612Z,87.4854
2024-05-09T00:53:33.950Z,87.4482
2024-05-09T00:54:33.938Z,87.3751
2024-05-09T00:55:36.150Z,87.5212
2024-05-09T00:56:36.283Z,87.5688
2024-05-09T00:57:38.580Z,87.5524
2024-05-09T00:58:40.800Z,87.6741
2024-05-09T00:59:43.018Z,87.5751
2024-05-09T01:00:45.422Z,87.5737
2024-05-09T01:01:48.407Z,87.4694
2024-05-09T01:02:48.357Z,87.5216
2024-05-09T01:03:51.672Z,87.4814
2024-05-09T01:04:51.996Z,87.4166
2024-05-09T01:05:52.032Z,87.5571
2024-05-09T01:06:52.006Z,87.6170
2024-05-09T01:07:54.158Z,87.5682
2024-05-09T01:08:56.437Z,87.5180
2024-05-09T01:09:58.776Z,87.5102
2024-05-09T01:11:01.386Z,87.4129
2024-05-09T01:12:02.523Z,87.3777
2024-05-09T01:13:02.868Z,87.3311
2024-05-09T01:14:05.202Z,87.3807
2024-05-09T01:15:07.521Z,87.3473
2024-05-09T01:16:12.821Z,87.3644
2024-05-09T01:17:11.307Z,87.3141
2024-05-09T01:18:12.477Z,87.3556
2024-05-09T01:19:13.789Z,87.4404
2024-05-09T01:20:20.052Z,87.3895
2024-05-09T01:21:14.968Z,87.3465
2024-05-09T01:22:14.927Z,87.4382
2024-05-09T01:23:17.224Z,87.4522
2024-05-09T01:24:17.926Z,87.3092
2024-05-09T01:25:20.265Z,87.2069
2024-05-09T01:26:22.387Z,87.2401
2024-05-09T01:27:24.724Z,87.2948
2024-05-09T01:28:26.792Z,87.3253
2024-05-09T01:29:29.166Z,87.4200
2024-05-09T01:30:35.111Z,87.4154
2024-05-09T01:31:32.222Z,87.4531
2024-05-09T01:32:34.649Z,87.4662
2024-05-09T01:33:34.724Z,87.4781
2024-05-09T01:34:34.622Z,87.5475
2024-05-09T01:35:36.962Z,87.5325
2024-05-09T01:36:36.766Z,87.4714
2024-05-09T01:37:39.857Z,87.2785
2024-05-09T01:38:39.624Z,87.3188
2024-05-09T01:39:41.704Z,87.4097
2024-05-09T01:40:43.937Z,87.5339
2024-05-09T01:41:46.181Z,87.5904
2024-05-09T01:42:48.429Z,87.5091
2024-05-09T01:43:50.604Z,87.4116
2024-05-09T01:44:52.760Z,87.4672
2024-05-09T01:45:54.926Z,87.5529
2024-05-09T01:46:57.247Z,87.4908
2024-05-09T01:47:59.741Z,87.4354
2024-05-09T01:48:59.833Z,87.4521
2024-05-09T01:49:59.745Z,87.4025
2024-05-09T01:51:01.949Z,87.3283
2024-05-09T01:52:01.936Z,87.4461
2024-05-09T01:53:04.161Z,87.6076
2024-05-09T01:54:06.464Z,87.6046
2024-05-09T01:55:08.554Z,87.7354
2024-05-09T01:56:10.795Z,87.6999
2024-05-09T01:57:12.847Z,87.7718
2024-05-09T01:58:15.110Z,87.6618
2024-05-09T01:59:17.252Z,87.5259
2024-05-09T02:00:30.157Z,87.6563
2024-05-09T02:01:20.303Z,87.6100
2024-05-09T02:02:22.627Z,87.6993
2024-05-09T02:03:25.038Z,87.7252
2024-05-09T02:04:25.051Z,87.6805
2024-05-09T02:05:25.029Z,87.5684
2024-05-09T02:06:27.099Z,87.5908
2024-05-09T02:07:29.190Z,87.7650
2024-05-09T02:08:31.490Z,87.7918
2024-05-09T02:09:31.533Z,87.7325
2024-05-09T02:10:33.875Z,87.7706
2024-05-09T02:11:33.996Z,87.7319
2024-05-09T02:12:33.877Z,87.7957
2024-05-09T02:13:33.740Z,87.8401
2024-05-09T02:14:36.054Z,87.8489
2024-05-09T02:15:37.022Z,87.7716
2024-05-09T02:16:39.374Z,87.6361
2024-05-09T02:17:40.511Z,87.5928
2024-05-09T02:18:40.586Z,87.6039
2024-05-09T02:19:41.430Z,87.6542
2024-05-09T02:20:44.148Z,87.5464
2024-05-09T02:21:44.121Z,87.3633
2024-05-09T02:22:46.386Z,87.3207
2024-05-09T02:23:46.372Z,87.4167
2024-05-09T02:24:48.540Z,87.3097
2024-05-09T02:25:50.738Z,87.2771
2024-05-09T02:26:52.888Z,87.2405
2024-05-09T02:27:55.056Z,87.2709
2024-05-09T02:28:57.323Z,87.4215
2024-05-09T02:29:59.492Z,87.4532
2024-05-09T02:31:01.698Z,87.4036
2024-05-09T02:32:02.977Z,87.4109
2024-05-09T02:33:03.463Z,87.5038
2024-05-09T02:34:03.420Z,87.4948
2024-05-09T02:35:03.423Z,87.5042
2024-05-09T02:36:03.365Z,87.4748
2024-05-09T02:37:05.734Z,87.5632
2024-05-09T02:38:06.692Z,87.4717
2024-05-09T02:39:06.756Z,87.4664
2024-05-09T02:40:14.273Z,87.5076
2024-05-09T02:41:10.083Z,87.4854
2024-05-09T02:42:12.333Z,87.4544
2024-05-09T02:43:14.566Z,87.5063
2024-05-09T02:44:16.896Z,87.4451
2024-05-09T02:45:16.807Z,87.3860
2024-05-09T02:46:19.172Z,87.5525
2024-05-09T02:47:21.757Z,87.6258
2024-05-09T02:48:21.821Z,87.7393
2024-05-09T02:49:24.221Z,87.6427
2024-05-09T02:50:33.060Z,87.7432
2024-05-09T02:51:26.870Z,87.8163
2024-05-09T02:52:27.293Z,87.8439
2024-05-09T02:53:27.157Z,87.7188
2024-05-09T02:54:29.323Z,87.6941
2024-05-09T02:55:31.605Z,87.6789
2024-05-09T02:56:34.045Z,87.8005
2024-05-09T02:57:36.174Z,87.8722
2024-05-09T02:58:38.440Z,87.9627
2024-05-09T02:59:40.730Z,87.8955
2024-05-09T03:00:42.831Z,87.8987
2024-05-09T03:01:42.492Z,88.0647
2024-05-09T03:02:42.735Z,88.2271
2024-05-09T03:03:42.730Z,88.1831
2024-05-09T03:04:42.759Z,88.1275
2024-05-09T03:05:45.394Z,88.0735
2024-05-09T03:06:45.457Z,88.2396
2024-05-09T03:07:46.409Z,88.1098
2024-05-09T03:08:46.270Z,88.2333
2024-05-09T03:09:48.389Z,88.1358
2024-05-09T03:10:50.584Z,88.1858
2024-05-09T03:11:52.981Z,88.1155
2024-05-09T03:12:52.928Z,88.0840
2024-05-09T03:13:55.099Z,88.0566
2024-05-09T03:14:57.200Z,88.0635
2024-05-09T03:15:59.537Z,88.1348
2024-05-09T03:17:01.915Z,88.2288
2024-05-09T03:18:02.142Z,88.2949
2024-05-09T03:19:02.465Z,88.2732
2024-05-09T03:20:05.110Z,88.2408
2024-05-09T03:21:04.355Z,88.3588
2024-05-09T03:22:06.660Z,88.3090
2024-05-09T03:23:06.795Z,88.2827
2024-05-09T03:24:09.167Z,88.1527
2024-05-09T03:25:11.351Z,88.1223
2024-05-09T03:26:13.665Z,88.2962
2024-05-09T03:27:15.908Z,88.4438
2024-05-09T03:28:15.763Z,88.5671
2024-05-09T03:29:18.078Z,88.6039
2024-05-09T03:30:29.289Z,88.5521
2024-05-09T03:31:18.947Z,88.4964
2024-05-09T03:32:21.488Z,88.5346
2024-05-09T03:33:21.835Z,88.4383
2024-05-09T03:34:22.058Z,88.4865
2024-05-09T03:35:25.005Z,88.5819
2024-05-09T03:36:24.993Z,88.6348
2024-05-09T03:37:25.464Z,88.7379
2024-05-09T03:38:26.242Z,88.8497
2024-05-09T03:39:28.530Z,88.7789
2024-05-09T03:40:31.401Z,88.7728
2024-05-09T03:41:31.480Z,88.7333
2024-05-09T03:42:31.932Z,88.7104
2024-05-09T03:43:31.822Z,88.7546
2024-05-09T03:44:34.217Z,88.6186
2024-05-09T03:45:34.191Z,88.7565
2024-05-09T03:46:36.417Z,88.7871
2024-05-09T03:47:38.848Z,88.6964
2024-05-09T03:48:38.968Z,88.7406
2024-05-09T03:49:41.206Z,88.7492
2024-05-09T03:50:43.610Z,88.7706
2024-05-09T03:51:44.082Z,88.8694
2024-05-09T03:52:44.024Z,88.7996
2024-05-09T03:53:44.273Z,88.9025
2024-05-09T03:54:46.434Z,88.9829
2024-05-09T03:55:48.620Z,88.9320
2024-05-09T03:56:50.938Z,88.8545
2024-05-09T03:57:53.271Z,88.8059
2024-05-09T03:58:55.592Z,88.9230
2024-05-09T03:59:57.744Z,89.0268
2024-05-09T04:01:00.963Z,89.1100
2024-05-09T04:02:01.995Z,89.0203
2024-05-09T04:03:02.330Z,88.9772
2024-05-09T04:04:02.510Z,88.8453
2024-05-09T04:05:04.893Z,88.8248
2024-05-09T04:06:05.411Z,88.7815
2024-05-09T04:07:05.273Z,88.7756
2024-05-09T04:08:07.710Z,88.7076
2024-05-09T04:09:07.639Z,88.7045
2024-05-09T04:10:16.994Z,88.5939
2024-05-09T04:11:10.992Z,88.5780
2024-05-09T04:12:12.023Z,88.6571
2024-05-09T04:13:13.015Z,88.5940
2024-05-09T04:14:15.293Z,88.5179
2024-05-09T04:15:15.580Z,88.5232
2024-05-09T04:16:17.755Z,88.4305
2024-05-09T04:17:20.595Z,88.5068
2024-05-09T04:18:22.442Z,88.5836
2024-05-09T04:19:24.640Z,88.5901
2024-05-09T04:20:33.909Z,88.5464
2024-05-09T04:21:25.563Z,88.3196
2024-05-09T04:22:27.718Z,88.2178
2024-05-09T04:23:30.009Z,88.0273
2024-05-09T04:24:29.998Z,88.0963
2024-05-09T04:25:32.275Z,88.1388
2024-05-09T04:26:34.627Z,88.2831
2024-05-09T04:27:37.832Z,88.2877
2024-05-09T04:28:37.707Z,88.2554
2024-05-09T04:29:40.028Z,88.2977
2024-05-09T04:30:42.684Z,88.2880
2024-05-09T04:31:43.022Z,88.2955
2024-05-09T04:32:45.427Z,88.3781
2024-05-09T04:33:46.732Z,88.3169
2024-05-09T04:34:46.752Z,88.2887
2024-05-09T04:35:48.999Z,88.3012
2024-05-09T04:36:51.180Z,88.2128
2024-05-09T04:37:51.469Z,88.3785
2024-05-09T04:38:53.677Z,88.4620
2024-05-09T04:39:55.920Z,88.3151
2024-05-09T04:40:58.103Z,88.2744
2024-05-09T04:42:00.293Z,88.0987
2024-05-09T04:43:02.382Z,88.2336
2024-05-09T04:44:04.548Z,88.2163
2024-05-09T04:45:06.692Z,88.2316
2024-05-09T04:46:08.902Z,88.1160
2024-05-09T04:47:11.986Z,88.1449
2024-05-09T04:48:12.177Z,88.2683
2024-05-09T04:49:12.106Z,88.1245
2024-05-09T04:50:21.182Z,88.0449
2024-05-09T04:51:15.381Z,88.0933
2024-05-09T04:52:18.376Z,88.1652
2024-05-09T04:53:18.428Z,88.1475
2024-05-09T04:54:26.209Z,88.1368
2024-05-09T04:55:19.449Z,88.0388
2024-05-09T04:56:21.644Z,88.1727
2024-05-09T04:57:23.880Z,88.1811
2024-05-09T04:58:25.980Z,88.2230
2024-05-09T04:59:28.328Z,88.1247
2024-05-09T05:00:35.035Z,88.2282
2024-05-09T05:01:29.292Z,88.1477
2024-05-09T05:02:31.616Z,88.0690
2024-05-09T05:03:34.036Z,88.1379
2024-05-09T05:04:33.998Z,88.1805
2024-05-09T05:05:36.266Z,88.1739
2024-05-09T05:06:38.544Z,88.0529
2024-05-09T05:07:40.648Z,87.7923
2024-05-09T05:08:42.863Z,87.7622
2024-05-09T05:09:45.024Z,87.9410
2024-05-09T05:10:47.945Z,87.9052
2024-05-09T05:11:49.572Z,87.8333
2024-05-09T05:12:51.521Z,87.8241
2024-05-09T05:13:52.475Z,87.9154
2024-05-09T05:14:54.957Z,88.1895
2024-05-09T05:15:54.860Z,88.1868
2024-05-09T05:16:55.772Z,88.2795
2024-05-09T05:17:55.884Z,88.1692
2024-05-09T05:18:56.130Z,88.1334
2024-05-09T05:19:57.250Z,88.1615
2024-05-09T05:20:57.397Z,88.1232
2024-05-09T05:21:57.448Z,88.1765
2024-05-09T05:22:58.256Z,88.1304
2024-05-09T05:24:00.560Z,88.0257
2024-05-09T05:25:02.877Z,87.9836
2024-05-09T05:26:03.305Z,87.8668
2024-05-09T05:27:04.240Z,87.8277
2024-05-09T05:28:06.568Z,87.7974
2024-05-09T05:29:08.905Z,87.9414
2024-05-09T05:30:17.628Z,88.0520
2024-05-09T05:31:13.097Z,88.1734
2024-05-09T05:32:13.194Z,88.0765
2024-05-09T05:33:13.582Z,88.1596
2024-05-09T05:34:14.123Z,88.2810
2024-05-09T05:35:16.401Z,88.3769
2024-05-09T05:36:16.346Z,88.4434
2024-05-09T05:37:18.505Z,88.5370
2024-05-09T05:38:24.827Z,88.5672
2024-05-09T05:39:21.866Z,88.5730
2024-05-09T05:40:32.356Z,88.5512
2024-05-09T05:41:25.452Z,88.5420
2024-05-09T05:42:25.753Z,88.4148
2024-05-09T05:43:28.035Z,88.1803
2024-05-09T05:44:30.432Z,88.2155
2024-05-09T05:45:30.358Z,88.3160
2024-05-09T05:46:32.683Z,88.1511
2024-05-09T05:47:35.218Z,88.0171
2024-05-09T05:48:35.331Z,88.0682
2024-05-09T05:49:37.820Z,88.1478
2024-05-09T05:50:38.779Z,88.3186
2024-05-09T05:51:38.954Z,88.2981
2024-05-09T05:52:41.245Z,88.4564
2024-05-09T05:53:42.288Z,88.5404
2024-05-09T05:54:42.282Z,88.5584
2024-05-09T05:55:44.718Z,88.5850
2024-05-09T05:56:44.996Z,88.4261
2024-05-09T05:57:45.135Z,88.1328
2024-05-09T05:58:47.378Z,88.0757
2024-05-09T05:59:49.677Z,88.1037
2024-05-09T06:00:52.413Z,88.1483
2024-05-09T06:01:52.365Z,88.0618
2024-05-09T06:02:52.462Z,88.1757
2024-05-09T06:03:53.484Z,88.3046
2024-05-09T06:04:54.046Z,88.2673
2024-05-09T06:05:54.120Z,88.1702
2024-05-09T06:06:56.353Z,88.1309
2024-05-09T06:07:58.698Z,88.1896
2024-05-09T06:08:58.982Z,88.0861
2024-05-09T06:10:01.280Z,88.0486
2024-05-09T06:11:03.751Z,88.0016
2024-05-09T06:12:03.831Z,87.9015
2024-05-09T06:13:05.365Z,87.7273
2024-05-09T06:14:05.282Z,87.6319
2024-05-09T06:15:07.649Z,87.6549
2024-05-09T06:16:09.959Z,87.4735
2024-05-09T06:17:12.399Z,87.2776
2024-05-09T06:18:13.014Z,87.2579
2024-05-09T06:19:13.218Z,87.2549
2024-05-09T06:20:20.560Z,87.1456
2024-05-09T06:21:15.482Z,86.8866
2024-05-09T06:22:15.960Z,86.7075
2024-05-09T06:23:18.214Z,86.6845
2024-05-09T06:24:18.598Z,86.5808
2024-05-09T06:25:20.839Z,86.4148
2024-05-09T06:26:23.223Z,86.2424
2024-05-09T06:27:23.963Z,85.9524
2024-05-09T06:28:23.788Z,85.4340
2024-05-09T06:29:26.144Z,85.3936
2024-05-09T06:30:34.902Z,85.5960
2024-05-09T06:31:27.010Z,85.3444
2024-05-09T06:32:29.321Z,85.2867
2024-05-09T06:33:29.585Z,85.1626
2024-05-09T06:34:29.783Z,84.9799
2024-05-09T06:35:29.858Z,84.9659
2024-05-09T06:36:30.402Z,84.9056
2024-05-09T06:37:30.303Z,84.6198
2024-05-09T06:38:32.591Z,84.7572
2024-05-09T06:39:32.543Z,84.4472
2024-05-09T06:40:38.323Z,84.1989
2024-05-09T06:41:35.849Z,84.1804
2024-05-09T06:42:38.070Z,84.4233
2024-05-09T06:43:40.131Z,84.4917
2024-05-09T06:44:42.291Z,84.3761
2024-05-09T06:45:44.481Z,84.5335
2024-05-09T06:46:46.868Z,84.3549
2024-05-09T06:47:46.954Z,84.0836
2024-05-09T06:48:50.503Z,84.0065
2024-05-09T06:49:50.623Z,83.6239
2024-05-09T06:50:50.726Z,83.6175
2024-05-09T06:51:50.751Z,82.8759
2024-05-09T06:52:52.915Z,82.4154
2024-05-09T06:53:55.067Z,82.2143
2024-05-09T06:54:57.356Z,82.1822
2024-05-09T06:55:59.630Z,82.5001
2024-05-09T06:57:01.932Z,82.6611
2024-05-09T06:58:03.993Z,82.5736
2024-05-09T06:59:06.325Z,82.5248
2024-05-09T07:00:15.466Z,82.4149
2024-05-09T07:01:09.600Z,82.4743
2024-05-09T07:02:09.635Z,82.7301
2024-05-09T07:03:10.078Z,83.0367
2024-05-09T07:04:11.303Z,83.2231
2024-05-09T07:05:11.627Z,83.1049
2024-05-09T07:06:11.656Z,83.2250
2024-05-09T07:07:14.045Z,83.2090
2024-05-09T07:08:16.554Z,83.0103
2024-05-09T07:09:16.789Z,83.1830
2024-05-09T07:10:22.143Z,82.9678
2024-05-09T07:11:18.025Z,82.8572
2024-05-09T07:12:19.090Z,82.6143
2024-05-09T07:13:19.107Z,82.4818
2024-05-09T07:14:21.552Z,82.6369
2024-05-09T07:15:21.795Z,82.4336
2024-05-09T07:16:21.800Z,82.1930
2024-05-09T07:17:24.240Z,82.3185
2024-05-09T07:18:24.504Z,82.1813
2024-05-09T07:19:25.012Z,82.2834
2024-05-09T07:20:32.491Z,82.2055
2024-05-09T07:21:26.093Z,82.1668
2024-05-09T07:22:25.976Z,81.8004
2024-05-09T07:23:26.044Z,81.5365
2024-05-09T07:24:26.042Z,81.0763
2024-05-09T07:25:28.369Z,81.4733
2024-05-09T07:26:28.329Z,81.4246
2024-05-09T07:27:29.916Z,81.7654
2024-05-09T07:28:30.073Z,81.3292
2024-05-09T07:29:34.714Z,81.4437
2024-05-09T07:30:34.765Z,81.3003
2024-05-09T07:31:35.162Z,81.6964
2024-05-09T07:32:37.567Z,81.6771
2024-05-09T07:33:38.570Z,81.3276
2024-05-09T07:34:38.634Z,81.5458
2024-05-09T07:35:38.839Z,81.8498
2024-05-09T07:36:39.886Z,81.7071
2024-05-09T07:37:42.215Z,81.3094
2024-05-09T07:38:42.242Z,81.3032
2024-05-09T07:39:42.552Z,81.2998
2024-05-09T07:40:42.575Z,81.3591
2024-05-09T07:41:44.912Z,81.3385
2024-05-09T07:42:44.995Z,81.6159
2024-05-09T07:43:47.329Z,81.5487
2024-05-09T07:44:49.573Z,81.4488
2024-05-09T07:45:54.468Z,81.5827
2024-05-09T07:48:13.727Z,81.1748
2024-05-09T07:50:34.746Z,80.7021
2024-05-09T07:53:22.002Z,80.5135
2024-05-09T07:54:01.395Z,80.1253
2024-05-09T07:55:02.035Z,80.6439
2024-05-09T07:56:02.171Z,80.3594
2024-05-09T07:57:03.385Z,80.4376
2024-05-09T07:58:03.485Z,80.7377
2024-05-09T07:59:05.812Z,80.1154
2024-05-09T08:00:06.680Z,80.1287
2024-05-09T08:01:07.043Z,80.1469
2024-05-09T08:02:07.086Z,80.2111
2024-05-09T08:03:07.013Z,80.2878
2024-05-09T08:04:09.274Z,79.7977
2024-05-09T08:05:09.388Z,79.3036
2024-05-09T08:06:10.390Z,79.6060
2024-05-09T08:07:12.697Z,79.5154
2024-05-09T08:08:14.997Z,79.2895
2024-05-09T08:09:21.013Z,78.7030
2024-05-09T08:10:22.107Z,78.0110
2024-05-09T08:11:18.310Z,77.9470
2024-05-09T08:12:20.612Z,77.8036
2024-05-09T08:13:23.135Z,78.0577
2024-05-09T08:14:23.196Z,78.3327
2024-05-09T08:15:25.486Z,78.1788
2024-05-09T08:16:25.578Z,77.9072
2024-05-09T08:17:25.569Z,78.1988
2024-05-09T08:18:27.990Z,78.3214
2024-05-09T08:19:28.085Z,78.2055
2024-05-09T08:20:33.720Z,78.1571
2024-05-09T08:21:31.482Z,78.2671
2024-05-09T08:22:32.439Z,78.3825
2024-05-09T08:23:34.700Z,78.2618
2024-05-09T08:24:36.984Z,78.7539
2024-05-09T08:25:39.196Z,78.9115
2024-05-09T08:26:41.466Z,79.1598
2024-05-09T08:27:42.555Z,79.0215
2024-05-09T08:28:42.416Z,78.8542
2024-05-09T08:29:44.713Z,78.8750
2024-05-09T08:30:44.840Z,79.0299
2024-05-09T08:31:45.839Z,79.0771
2024-05-09T08:32:48.353Z,79.3805
2024-05-09T08:33:48.668Z,79.6960
2024-05-09T08:34:48.721Z,79.3910
2024-05-09T08:35:50.024Z,79.0730
2024-05-09T08:36:52.376Z,79.2202
2024-05-09T08:37:53.069Z,79.0386
2024-05-09T08:38:53.062Z,78.8848
2024-05-09T08:39:53.204Z,79.1467
2024-05-09T08:40:55.593Z,79.2551
2024-05-09T08:41:55.650Z,78.8830
2024-05-09T08:42:57.874Z,79.1497
2024-05-09T08:44:00.121Z,79.1825
2024-05-09T08:45:02.303Z,79.0369
2024-05-09T08:46:02.393Z,78.7984
2024-05-09T08:47:02.981Z,78.1933
2024-05-09T08:48:05.421Z,78.1415
2024-05-09T08:49:06.058Z,78.0272
2024-05-09T08:50:08.570Z,77.9219
2024-05-09T08:51:06.583Z,77.5677
2024-05-09T08:52:07.546Z,77.8551
2024-05-09T08:53:07.856Z,78.0287
2024-05-09T08:54:07.937Z,77.8053
2024-05-09T08:55:10.363Z,77.4095
2024-05-09T08:56:10.502Z,77.5484
2024-05-09T08:57:12.721Z,77.3064
2024-05-09T08:58:15.353Z,77.4402
2024-05-09T08:59:16.168Z,77.6493
2024-05-09T09:00:29.049Z,77.2131
2024-05-09T09:01:19.702Z,77.1439
2024-05-09T09:02:21.293Z,77.2771
2024-05-09T09:03:21.850Z,76.8811
2024-05-09T09:04:24.259Z,76.9234
2024-05-09T09:05:24.426Z,76.9281
2024-05-09T09:06:24.357Z,77.2063
2024-05-09T09:07:26.784Z,77.1520
2024-05-09T09:08:27.683Z,76.8763
2024-05-09T09:09:27.996Z,76.9782
2024-05-09T09:10:32.360Z,77.0566
2024-05-09T09:11:30.827Z,76.9533
2024-05-09T09:12:33.107Z,77.0791
2024-05-09T09:13:35.350Z,77.1152
2024-05-09T09:14:37.596Z,77.1196
2024-05-09T09:15:37.664Z,77.0959
2024-05-09T09:16:39.938Z,76.7050
2024-05-09T09:17:42.387Z,76.5442
2024-05-09T09:18:42.644Z,76.5991
2024-05-09T09:19:42.584Z,76.1880
2024-05-09T09:20:45.005Z,76.2347
2024-05-09T09:21:45.060Z,76.3246
2024-05-09T09:22:45.122Z,76.5025
2024-05-09T09:23:47.527Z,76.5539
2024-05-09T09:24:49.724Z,76.1622
2024-05-09T09:25:50.863Z,76.2570
2024-05-09T09:26:51.713Z,76.0132
2024-05-09T09:27:53.991Z,75.6961
2024-05-09T09:28:54.037Z,75.8877
2024-05-09T09:29:56.322Z,75.4907
2024-05-09T09:30:56.238Z,75.4596
2024-05-09T09:31:58.466Z,75.4548
2024-05-09T09:33:01.009Z,74.8828
2024-05-09T09:34:01.283Z,74.7144
2024-05-09T09:35:01.395Z,75.4584
2024-05-09T09:36:01.531Z,76.1447
2024-05-09T09:37:03.823Z,76.3553
2024-05-09T09:38:03.823Z,76.3065
2024-05-09T09:39:06.062Z,75.9322
2024-05-09T09:40:08.949Z,76.2173
2024-05-09T09:41:08.895Z,76.3683
2024-05-09T09:42:09.804Z,76.4909
2024-05-09T09:43:12.212Z,75.6573
2024-05-09T09:44:12.279Z,75.3491
2024-05-09T09:45:14.632Z,75.4040
2024-05-09T09:46:17.121Z,75.6519
2024-05-09T09:47:17.373Z,76.0203
2024-05-09T09:48:19.748Z,75.9683
2024-05-09T09:49:21.538Z,75.2753
2024-05-09T09:50:27.706Z,74.8133
2024-05-09T09:51:22.620Z,75.2506
2024-05-09T09:52:23.028Z,75.6927
2024-05-09T09:53:22.931Z,75.0129
2024-05-09T09:54:25.231Z,74.8126
2024-05-09T09:55:26.062Z,74.4462
2024-05-09T09:56:25.959Z,74.2256
2024-05-09T09:57:26.221Z,74.0404
2024-05-09T09:58:28.563Z,73.4233
2024-05-09T09:59:28.524Z,72.7194
2024-05-09T10:00:33.290Z,72.0453
2024-05-09T10:01:31.911Z,71.8864
2024-05-09T10:02:32.172Z,72.3540
2024-05-09T10:03:32.342Z,71.9709
2024-05-09T10:04:33.417Z,70.2015
2024-05-09T10:05:33.717Z,70.4806
2024-05-09T10:06:33.755Z,70.4931
2024-05-09T10:07:35.924Z,70.0390
2024-05-09T10:08:38.038Z,69.4020
2024-05-09T10:09:40.283Z,68.7702
2024-05-09T10:10:42.690Z,69.2197
2024-05-09T10:12:44.854Z,68.1104
2024-05-09T10:13:47.071Z,67.6230
2024-05-09T10:14:49.367Z,68.2311
2024-05-09T10:15:52.146Z,68.2943
2024-05-09T10:16:52.295Z,68.9802
2024-05-09T10:17:54.712Z,69.8814
2024-05-09T10:18:54.822Z,69.7669
2024-05-09T10:19:54.864Z,69.7946
2024-05-09T10:20:54.932Z,70.9015
2024-05-09T10:21:57.258Z,70.7655
2024-05-09T10:22:57.328Z,70.4808
2024-05-09T10:23:57.645Z,70.8913
2024-05-09T10:25:01.505Z,70.2749
2024-05-09T10:26:03.790Z,69.8448
2024-05-09T10:27:03.616Z,69.1074
2024-05-09T10:28:04.135Z,69.1493
2024-05-09T10:29:06.439Z,69.6128
2024-05-09T10:30:14.412Z,69.6107
2024-05-09T10:31:09.701Z,69.2069
2024-05-09T10:32:11.920Z,69.3217
2024-05-09T10:33:13.008Z,69.3347
2024-05-09T10:34:13.172Z,69.6421
2024-05-09T10:35:13.146Z,69.3613
2024-05-09T10:36:13.319Z,69.1524
2024-05-09T10:37:15.695Z,69.4320
2024-05-09T10:38:15.637Z,68.2901
2024-05-09T10:39:16.014Z,66.7919
2024-05-09T10:40:25.778Z,67.6349
2024-05-09T10:41:19.112Z,68.8415
2024-05-09T10:42:21.311Z,68.6043
2024-05-09T10:43:21.336Z,68.3885
2024-05-09T10:44:21.153Z,69.0067
2024-05-09T10:45:23.487Z,69.3484
2024-05-09T10:46:25.759Z,69.2046
2024-05-09T10:47:28.199Z,69.6222
2024-05-09T10:48:29.323Z,69.0649
2024-05-09T10:49:29.267Z,68.5944
2024-05-09T10:50:34.238Z,69.1970
2024-05-09T10:51:33.226Z,69.7985
2024-05-09T10:52:35.519Z,69.3045
2024-05-09T10:53:37.859Z,69.2521
2024-05-09T10:54:37.894Z,68.7307
2024-05-09T10:55:37.881Z,68.1535
2024-05-09T10:56:37.768Z,67.1877
2024-05-09T10:57:39.986Z,67.9701
2024-05-09T10:58:42.401Z,68.4717
2024-05-09T10:59:42.371Z,68.7840
2024-05-09T11:00:44.794Z,68.3533
2024-05-09T11:01:45.018Z,68.4722
2024-05-09T11:02:45.053Z,68.0547
2024-05-09T11:03:47.572Z,67.8128
2024-05-09T11:04:47.951Z,67.5088
2024-05-09T11:05:47.997Z,66.8667
2024-05-09T11:06:48.073Z,67.4916
2024-05-09T11:07:50.570Z,67.4683
2024-05-09T11:08:50.486Z,66.6866
2024-05-09T11:09:52.903Z,66.7312
2024-05-09T11:10:53.039Z,66.9792
2024-05-09T11:11:53.226Z,65.8161
2024-05-09T11:12:53.293Z,65.9012
2024-05-09T11:13:55.546Z,64.9909
2024-05-09T11:14:57.860Z,65.3395
2024-05-09T11:16:00.179Z,65.8788
2024-05-09T11:17:00.276Z,64.7822
2024-05-09T11:18:02.782Z,65.7110
2024-05-09T11:19:04.916Z,65.7876
2024-05-09T11:20:10.773Z,64.7193
2024-05-09T11:21:06.106Z,63.9411
2024-05-09T11:22:08.570Z,63.8804
2024-05-09T11:23:08.578Z,63.8470
2024-05-09T11:24:11.482Z,62.3215
2024-05-09T11:25:11.853Z,61.9007
2024-05-09T11:26:12.590Z,61.8346
2024-05-09T11:27:12.522Z,62.5699
2024-05-09T11:28:15.046Z,62.1483
2024-05-09T11:29:17.935Z,63.2020
2024-05-09T11:30:24.190Z,63.4663
2024-05-09T11:31:18.255Z,63.6248
2024-05-09T11:32:18.302Z,63.9659
2024-05-09T11:33:19.220Z,63.7036
2024-05-09T11:34:19.373Z,63.8181
2024-05-09T11:35:19.637Z,64.1184
2024-05-09T11:36:19.555Z,64.6104
2024-05-09T11:37:19.635Z,63.9082
2024-05-09T11:38:19.584Z,64.1941
2024-05-09T11:39:21.779Z,64.4800
2024-05-09T11:40:26.035Z,64.0122
2024-05-09T11:41:25.076Z,64.1779
2024-05-09T11:42:25.206Z,63.2304
2024-05-09T11:43:25.475Z,63.0533
2024-05-09T11:44:25.341Z,62.7418
2024-05-09T11:45:27.554Z,62.5977
2024-05-09T11:46:29.703Z,62.4868
2024-05-09T11:47:32.075Z,61.9061
2024-05-09T11:48:32.331Z,63.1097
2024-05-09T11:49:32.613Z,64.5267
2024-05-09T11:50:35.498Z,64.0093
2024-05-09T11:51:33.432Z,63.7861
2024-05-09T11:52:35.665Z,63.4204
2024-05-09T11:53:37.818Z,63.5862
2024-05-09T11:54:40.114Z,63.9492
2024-05-09T11:55:42.284Z,64.1209
2024-05-09T11:56:44.513Z,64.7880
2024-05-09T11:57:46.848Z,65.7103
2024-05-09T11:58:47.136Z,65.8105
2024-05-09T11:59:50.061Z,66.2404
2024-05-09T12:00:50.044Z,66.6191
2024-05-09T12:01:50.295Z,66.3684
2024-05-09T12:02:50.318Z,66.1383
2024-05-09T12:03:52.743Z,66.7120
2024-05-09T12:04:52.814Z,66.8343
2024-05-09T12:05:55.060Z,66.0969
2024-05-09T12:06:57.326Z,65.4736
2024-05-09T12:07:59.450Z,65.5344
2024-05-09T12:09:01.622Z,65.6602
2024-05-09T12:10:06.080Z,65.2943
2024-05-09T12:11:05.753Z,64.0445
2024-05-09T12:12:08.038Z,63.5820
2024-05-09T12:13:10.400Z,63.7718
2024-05-09T12:14:12.676Z,62.4151
2024-05-09T12:15:14.996Z,62.8886
2024-05-09T12:16:17.301Z,63.1108
2024-05-09T12:17:19.609Z,63.9715
2024-05-09T12:18:21.801Z,64.5946
2024-05-09T12:19:24.049Z,63.8613
2024-05-09T12:20:34.727Z,63.4157
2024-05-09T12:21:27.285Z,64.6021
2024-05-09T12:22:29.455Z,63.7893
2024-05-09T12:23:31.641Z,63.2234
2024-05-09T12:24:33.872Z,63.2263
2024-05-09T12:25:36.970Z,62.8139
2024-05-09T12:26:39.133Z,61.8855